Accueil
METAR-TAF:

METAR-TAF

Aéroports :

RMAF Butterworth

Butterworth, Malaisie

latitude: 05-27-58N, longitude: 100-23-28E, altitude: 2 m

Observation

Le bulletin a été fait il y a 1 heure et 7 minutes, à 18:00 UTC
Vent calme
Température 28°C
Humidité 89%
Pression 1011 hPa
Visibilité: 8000 m
Quelques nuages à une hauteur de 2400 ft

METAR: WMKB 101800Z 00000KT 8000 FEW024 28/26 Q1011 NOSIG

Heure: 03:07 (19:07 UTC)

Prévision

Le bulletin a été fait il y a 2 heures et 7 minutes, à 17:00 UTC
Prévision valable du 10 à 18 UTC au 11 à 18 UTC
Vent 3 kt de direction variable
Visibilité: 7000 m
Quelques nuages à une hauteur de 2400 ft
Evoluant progressivement
du 11 à 04 UTC au 11 à 06 UTC
Vent 10 kt de ouest/nord-ouest
Visibilité: 9000 m
Quelques nuages à une hauteur de 2000 ft

TAF: WMKB 101700Z 1018/1118 VRB03KT 7000 FEW024 BECMG 1104/1106 29010KT 9000 FEW020

Observations et prévisions météorologiques de plus de 4000 aéroports (messages METAR et TAF).

Les stations disponibles sont représentées par des disques jaunes et rouges sur la carte.

Passer la souris dessus pour voir le nom de la station.

Cliquer dessus pour voir les observations et prévisions météorologiques.

Pour changer de carte: cliquez sur les boutons verts avec une croix noire pour zoomer, sur le bouton vert avec un tiret pour effectuer un zoom arrière, ou sur les flèches vertes pour les cartes adjacentes.


METAR-TAF: